Time;durP1;ratioP1;P1;durP2;ratioP2;P2;SDS_P1;SDS_P2;PMS_P1;PMS_P2;Temp;Humidity;BMP_temperature;BMP_pressure;BME280_temperature;BME280_humidity;BME280_pressure;Samples;Min_cycle;Max_cycle;Signal;HPM_P1;HPM_P2
2021/05/22 00:01:03;;;;;;;6.47;5.87;;;10.80;99.90;;;;;;5024285;28;20246;-79
2021/05/22 00:03:29;;;;;;;6.10;5.70;;;10.80;99.90;;;;;;5011248;28;20224;-80
2021/05/22 00:05:56;;;;;;;5.93;5.43;;;10.80;99.90;;;;;;5032395;28;20220;-79
2021/05/22 00:08:23;;;;;;;6.10;5.70;;;10.70;99.90;;;;;;5028864;28;20196;-79
2021/05/22 00:10:49;;;;;;;6.73;5.97;;;10.70;99.90;;;;;;5026578;28;20192;-80
2021/05/22 00:13:16;;;;;;;5.90;5.50;;;10.60;99.90;;;;;;5011993;28;20934;-79
2021/05/22 00:15:42;;;;;;;6.10;5.70;;;10.60;99.90;;;;;;5009829;28;20227;-80
2021/05/22 00:18:09;;;;;;;5.80;5.40;;;10.60;99.90;;;;;;5005157;28;20232;-79
2021/05/22 00:20:36;;;;;;;6.50;5.90;;;10.50;99.90;;;;;;5010419;28;20211;-79
2021/05/22 00:23:02;;;;;;;6.50;5.90;;;10.50;99.90;;;;;;5006636;28;20219;-80
2021/05/22 00:25:29;;;;;;;6.00;5.50;;;10.50;99.90;;;;;;5028935;28;20222;-79
2021/05/22 00:27:56;;;;;;;5.90;5.50;;;10.50;99.90;;;;;;5012709;28;20743;-79
2021/05/22 00:30:23;;;;;;;6.30;5.90;;;10.40;99.90;;;;;;5015577;28;20578;-79
2021/05/22 00:32:49;;;;;;;5.60;5.30;;;10.40;99.90;;;;;;5035177;28;20214;-79
2021/05/22 00:35:15;;;;;;;7.00;5.83;;;10.40;99.90;;;;;;5026278;28;20223;-80
2021/05/22 00:37:42;;;;;;;5.70;5.30;;;10.40;99.90;;;;;;5032027;28;20200;-79
2021/05/22 00:40:09;;;;;;;5.90;5.50;;;10.40;99.90;;;;;;5027778;28;20199;-79
2021/05/22 00:42:39;;;;;;;5.70;5.40;;;10.50;99.90;;;;;;5030990;28;20212;-79
2021/05/22 00:45:11;;;;;;;6.37;5.30;;;10.50;99.90;;;;;;5027911;28;20290;-79
2021/05/22 00:47:39;;;;;;;5.63;5.30;;;10.50;99.90;;;;;;5007768;28;20583;-79
2021/05/22 00:50:08;;;;;;;6.17;5.67;;;10.50;99.90;;;;;;5009310;28;20199;-79
2021/05/22 00:52:35;;;;;;;5.70;5.30;;;10.50;99.90;;;;;;5018717;28;20616;-79
2021/05/22 00:55:01;;;;;;;5.70;5.37;;;10.50;99.90;;;;;;5026171;28;20335;-79
2021/05/22 00:57:28;;;;;;;5.60;5.20;;;10.50;99.90;;;;;;5018114;28;20703;-79
2021/05/22 00:59:55;;;;;;;6.00;5.60;;;10.50;99.90;;;;;;5024600;28;20226;-80
2021/05/22 01:02:23;;;;;;;5.50;5.00;;;10.60;99.90;;;;;;5020057;28;20206;-79
2021/05/22 01:04:50;;;;;;;5.53;5.10;;;10.50;99.90;;;;;;5002904;28;20224;-79
2021/05/22 01:07:17;;;;;;;5.60;5.20;;;10.60;99.90;;;;;;5025681;28;20608;-79
2021/05/22 01:09:44;;;;;;;5.73;5.33;;;10.60;99.90;;;;;;5000753;28;20208;-79
2021/05/22 01:12:13;;;;;;;7.77;5.70;;;10.60;99.90;;;;;;4999335;28;20270;-80
2021/05/22 01:14:43;;;;;;;5.57;5.17;;;10.60;99.90;;;;;;5006040;28;20247;-79
2021/05/22 01:17:12;;;;;;;5.53;5.13;;;10.60;99.90;;;;;;5010801;28;20630;-79
2021/05/22 01:19:42;;;;;;;5.87;5.30;;;10.70;99.90;;;;;;5009664;28;20219;-79
2021/05/22 01:22:09;;;;;;;6.27;5.73;;;10.70;99.90;;;;;;5021213;28;20228;-79
2021/05/22 01:24:44;;;;;;;5.77;5.40;;;10.70;99.90;;;;;;5006242;28;20219;-79
2021/05/22 01:27:12;;;;;;;6.53;5.33;;;10.60;99.90;;;;;;5023211;28;20544;-79
2021/05/22 01:29:38;;;;;;;6.37;5.77;;;10.60;99.90;;;;;;5018858;28;20208;-79
2021/05/22 01:32:06;;;;;;;5.77;5.30;;;10.60;99.90;;;;;;5024074;28;20196;-79
2021/05/22 01:34:33;;;;;;;5.43;5.07;;;10.60;99.90;;;;;;5012553;28;20223;-79
2021/05/22 01:36:59;;;;;;;6.00;5.40;;;10.60;99.90;;;;;;5009088;28;20208;-80
2021/05/22 01:39:25;;;;;;;5.70;5.30;;;10.60;99.90;;;;;;5027173;28;20219;-79
2021/05/22 01:41:52;;;;;;;6.03;5.50;;;10.60;99.90;;;;;;5005677;28;20201;-79
2021/05/22 01:44:20;;;;;;;6.13;5.60;;;10.50;99.90;;;;;;5026438;28;20220;-79
2021/05/22 01:46:50;;;;;;;6.10;5.70;;;10.50;99.90;;;;;;5029786;28;20253;-79
2021/05/22 01:49:18;;;;;;;6.90;5.77;;;10.50;99.90;;;;;;5011304;28;20207;-79
2021/05/22 01:51:47;;;;;;;6.40;5.80;;;10.50;99.90;;;;;;5010908;28;20200;-79
2021/05/22 01:54:15;;;;;;;5.70;5.40;;;10.50;99.90;;;;;;5028323;28;20209;-79
2021/05/22 01:56:42;;;;;;;5.83;5.50;;;10.50;99.90;;;;;;5014613;28;20203;-79
2021/05/22 01:59:09;;;;;;;6.00;5.50;;;10.50;99.90;;;;;;5033762;28;20207;-80
2021/05/22 02:01:37;;;;;;;6.20;5.60;;;10.50;99.90;;;;;;5010419;28;20204;-79
2021/05/22 02:04:05;;;;;;;6.70;5.80;;;10.50;99.90;;;;;;5034433;28;20758;-79
2021/05/22 02:06:38;;;;;;;6.07;5.57;;;10.50;99.90;;;;;;5012450;28;20554;-79
2021/05/22 02:09:06;;;;;;;6.40;5.90;;;10.50;99.90;;;;;;5030058;28;20195;-80
2021/05/22 02:11:35;;;;;;;6.47;5.97;;;10.60;99.90;;;;;;5009120;28;20212;-80
2021/05/22 02:14:04;;;;;;;6.30;5.80;;;10.60;99.90;;;;;;5015331;28;20226;-79
2021/05/22 02:16:34;;;;;;;6.33;5.70;;;10.50;99.90;;;;;;5033879;28;20763;-79
2021/05/22 02:19:04;;;;;;;6.00;5.60;;;10.50;99.90;;;;;;5017542;28;20227;-80
2021/05/22 02:21:32;;;;;;;8.73;6.03;;;10.60;99.90;;;;;;5034705;28;20196;-79
2021/05/22 02:23:59;;;;;;;6.40;5.90;;;10.60;99.90;;;;;;5026933;28;20220;-80
2021/05/22 02:26:27;;;;;;;6.00;5.60;;;10.70;99.90;;;;;;5016707;28;20207;-79
2021/05/22 02:28:54;;;;;;;6.23;5.77;;;10.60;99.90;;;;;;5016865;28;20223;-79
2021/05/22 02:31:25;;;;;;;8.30;5.90;;;10.60;99.90;;;;;;5026661;28;20684;-80
2021/05/22 02:33:54;;;;;;;6.40;5.90;;;10.60;99.90;;;;;;5012540;28;20204;-79
2021/05/22 02:36:21;;;;;;;6.30;5.90;;;10.70;99.90;;;;;;5016378;28;20208;-79
2021/05/22 02:38:51;;;;;;;6.53;6.03;;;10.70;99.90;;;;;;5011234;28;20207;-79
2021/05/22 02:41:21;;;;;;;6.77;6.17;;;10.60;99.90;;;;;;5011232;28;20270;-80
2021/05/22 02:43:50;;;;;;;6.43;6.00;;;10.60;99.90;;;;;;5034151;28;20211;-79
2021/05/22 02:46:18;;;;;;;6.30;5.80;;;10.60;99.90;;;;;;5062823;23;20729;-76
2021/05/22 02:48:45;;;;;;;6.20;5.80;;;10.60;99.90;;;;;;5072007;28;20244;-76
2021/05/22 02:51:16;;;;;;;6.30;5.77;;;10.50;99.90;;;;;;5081104;28;20562;-76
2021/05/22 02:53:45;;;;;;;6.80;6.10;;;10.40;99.90;;;;;;5068716;28;20624;-76
2021/05/22 02:56:12;;;;;;;6.40;5.80;;;10.40;99.90;;;;;;5058121;28;20207;-76
2021/05/22 02:58:41;;;;;;;6.00;5.70;;;10.30;99.90;;;;;;5041668;28;20218;-76
2021/05/22 03:01:08;;;;;;;6.50;6.00;;;10.30;99.90;;;;;;5049593;28;20242;-76
2021/05/22 03:03:35;;;;;;;6.20;5.70;;;10.20;99.90;;;;;;5049844;28;20211;-77
2021/05/22 03:06:02;;;;;;;8.00;6.20;;;10.10;99.90;;;;;;5047111;28;20223;-76
2021/05/22 03:08:29;;;;;;;6.30;5.90;;;10.10;99.90;;;;;;5045892;28;20202;-76
2021/05/22 03:10:57;;;;;;;6.37;5.97;;;10.00;99.90;;;;;;5046542;28;20195;-75
2021/05/22 03:13:24;;;;;;;6.80;6.40;;;10.00;99.90;;;;;;5052190;28;20187;-76
2021/05/22 03:15:50;;;;;;;6.80;6.40;;;9.90;99.90;;;;;;5045749;28;20686;-76
2021/05/22 03:18:16;;;;;;;7.30;6.60;;;9.90;99.90;;;;;;5049289;28;20237;-76
2021/05/22 03:20:44;;;;;;;7.10;6.70;;;9.80;99.90;;;;;;5045984;28;20196;-76
2021/05/22 03:23:10;;;;;;;7.00;6.60;;;9.80;99.90;;;;;;5050454;28;20643;-76
2021/05/22 03:25:36;;;;;;;7.03;6.50;;;9.80;99.90;;;;;;5046071;28;20265;-76
2021/05/22 03:28:04;;;;;;;8.03;7.40;;;9.70;99.90;;;;;;5048970;28;20209;-77
2021/05/22 03:30:30;;;;;;;7.57;7.07;;;9.70;99.90;;;;;;5048607;28;20195;-76
2021/05/22 03:32:57;;;;;;;7.43;6.93;;;9.70;99.90;;;;;;5041360;28;20191;-76
2021/05/22 03:35:23;;;;;;;7.40;6.80;;;9.60;99.90;;;;;;5050168;28;20226;-76
2021/05/22 03:37:49;;;;;;;7.50;7.00;;;9.60;99.90;;;;;;5043537;28;20195;-77
2021/05/22 03:40:16;;;;;;;7.30;6.80;;;9.60;99.90;;;;;;5052212;28;20199;-77
2021/05/22 03:42:42;;;;;;;7.13;6.70;;;9.50;99.90;;;;;;5044663;28;20689;-77
2021/05/22 03:45:10;;;;;;;7.33;6.87;;;9.50;99.90;;;;;;5050576;28;20227;-76
2021/05/22 03:47:37;;;;;;;7.80;7.33;;;9.50;99.90;;;;;;5051861;28;20199;-76
2021/05/22 03:50:04;;;;;;;6.60;6.07;;;9.50;99.90;;;;;;5044980;28;20199;-77
2021/05/22 03:52:30;;;;;;;6.63;6.23;;;9.40;99.90;;;;;;5049743;28;20202;-77
2021/05/22 03:54:57;;;;;;;6.80;6.40;;;9.40;99.90;;;;;;5042835;28;20207;-77
2021/05/22 03:57:23;;;;;;;6.90;6.40;;;9.40;99.90;;;;;;5050731;28;20203;-78
2021/05/22 03:59:49;;;;;;;6.90;6.50;;;9.40;99.90;;;;;;5052311;28;20998;-77
2021/05/22 04:02:17;;;;;;;6.93;6.43;;;9.40;99.90;;;;;;5052087;28;20214;-77
2021/05/22 04:04:43;;;;;;;6.77;6.27;;;9.40;99.90;;;;;;5055810;28;20214;-77
2021/05/22 04:07:09;;;;;;;6.73;6.33;;;9.50;99.90;;;;;;5054629;28;20199;-77
2021/05/22 04:09:35;;;;;;;6.60;6.20;;;9.60;99.90;;;;;;5051081;28;20679;-77
2021/05/22 04:12:02;;;;;;;6.37;5.97;;;9.70;99.90;;;;;;5051140;28;20202;-77
2021/05/22 04:14:28;;;;;;;6.40;6.10;;;9.80;99.90;;;;;;5053775;28;20206;-77
2021/05/22 04:16:54;;;;;;;6.37;6.00;;;9.80;99.90;;;;;;5054956;28;20260;-77
2021/05/22 04:19:22;;;;;;;6.40;6.00;;;9.90;99.90;;;;;;5053613;28;20206;-77
2021/05/22 04:21:48;;;;;;;6.83;6.33;;;9.90;99.90;;;;;;5050861;28;20187;-77
2021/05/22 04:24:14;;;;;;;6.30;5.90;;;9.90;99.90;;;;;;5046865;28;20215;-79
2021/05/22 04:26:41;;;;;;;6.10;5.70;;;9.90;99.90;;;;;;5051530;28;20215;-77
2021/05/22 04:29:07;;;;;;;6.40;5.90;;;9.90;99.90;;;;;;5049416;28;20199;-76
2021/05/22 04:31:33;;;;;;;6.30;5.90;;;10.00;99.90;;;;;;5053197;28;20199;-77
2021/05/22 04:34:00;;;;;;;6.10;5.70;;;10.20;99.90;;;;;;5049674;28;20202;-76
2021/05/22 04:36:27;;;;;;;6.53;6.13;;;10.20;99.90;;;;;;5070299;28;20211;-76
2021/05/22 04:38:53;;;;;;;6.30;5.80;;;10.30;99.90;;;;;;5050837;28;20260;-77
2021/05/22 04:41:20;;;;;;;6.10;5.60;;;10.40;99.90;;;;;;5052460;28;20195;-76
2021/05/22 04:43:46;;;;;;;6.60;6.17;;;10.40;99.90;;;;;;5051239;28;20230;-76
2021/05/22 04:46:12;;;;;;;6.27;5.80;;;10.60;99.90;;;;;;5052222;28;20226;-75
2021/05/22 04:48:39;;;;;;;6.43;6.00;;;10.80;99.90;;;;;;5041225;28;20664;-74
2021/05/22 04:51:06;;;;;;;6.67;6.27;;;11.00;99.90;;;;;;5046766;28;20815;-74
2021/05/22 04:53:36;;;;;;;6.43;6.03;;;11.20;99.90;;;;;;5027694;28;20639;-74
2021/05/22 04:56:02;;;;;;;6.13;5.73;;;11.30;99.90;;;;;;5032041;28;20310;-75
2021/05/22 04:58:28;;;;;;;6.40;5.90;;;11.50;99.90;;;;;;5028988;28;20200;-74
2021/05/22 05:00:55;;;;;;;6.83;6.23;;;11.60;99.90;;;;;;5045488;28;20199;-75
2021/05/22 05:03:21;;;;;;;5.80;5.50;;;11.70;99.90;;;;;;5052468;28;20215;-74
2021/05/22 05:05:47;;;;;;;6.30;5.90;;;11.90;99.90;;;;;;5029727;28;20224;-74
2021/05/22 05:08:18;;;;;;;6.07;5.57;;;12.00;99.90;;;;;;5051626;28;20211;-75
2021/05/22 05:10:45;;;;;;;6.50;5.90;;;12.30;99.90;;;;;;5027648;28;20670;-74
2021/05/22 05:13:12;;;;;;;6.83;6.33;;;12.60;99.90;;;;;;5053615;28;20203;-75
2021/05/22 05:15:39;;;;;;;7.37;6.77;;;12.70;99.90;;;;;;5034616;28;20251;-79
2021/05/22 05:18:05;;;;;;;6.60;6.00;;;12.90;99.90;;;;;;5054567;28;20255;-76
2021/05/22 05:20:32;;;;;;;7.00;6.33;;;13.00;99.90;;;;;;5034064;28;20209;-80
2021/05/22 05:22:58;;;;;;;6.53;5.93;;;13.10;99.90;;;;;;5043539;28;20215;-75
2021/05/22 05:25:24;;;;;;;6.80;6.27;;;13.00;99.90;;;;;;5052630;28;20713;-76
2021/05/22 05:27:52;;;;;;;6.47;6.00;;;13.00;99.90;;;;;;5045714;28;20232;-76
2021/05/22 05:30:19;;;;;;;6.73;6.20;;;12.90;99.90;;;;;;5052577;28;20222;-77
2021/05/22 05:32:45;;;;;;;8.53;6.20;;;13.00;99.90;;;;;;5027438;28;20203;-77
2021/05/22 05:35:11;;;;;;;7.07;6.23;;;13.20;99.90;;;;;;5048898;28;20230;-80
2021/05/22 05:37:38;;;;;;;6.87;6.37;;;13.40;99.90;;;;;;5053903;28;20195;-77
2021/05/22 05:40:06;;;;;;;6.10;5.50;;;13.70;99.90;;;;;;5035126;28;20218;-82
2021/05/22 05:42:32;;;;;;;4.50;4.20;;;14.10;99.90;;;;;;5050448;28;20195;-77
2021/05/22 05:45:00;;;;;;;4.90;4.40;;;14.80;99.90;;;;;;5029906;28;20223;-77
2021/05/22 05:47:27;;;;;;;5.60;3.97;;;15.50;99.90;;;;;;5045946;28;20672;-76
2021/05/22 05:49:53;;;;;;;7.70;5.00;;;16.00;99.90;;;;;;5031377;28;20209;-77
2021/05/22 05:52:19;;;;;;;7.60;4.67;;;16.50;99.90;;;;;;5034442;28;20199;-77
2021/05/22 05:54:46;;;;;;;7.00;4.53;;;16.90;99.90;;;;;;5051325;28;20198;-77
2021/05/22 05:57:12;;;;;;;5.83;5.23;;;16.70;99.90;;;;;;5049035;28;20245;-76
2021/05/22 05:59:38;;;;;;;6.67;5.90;;;16.20;99.90;;;;;;5048496;28;20206;-77
2021/05/22 06:02:06;;;;;;;6.73;6.23;;;15.80;99.90;;;;;;5046932;28;20204;-77
2021/05/22 06:04:32;;;;;;;6.70;5.90;;;16.10;99.90;;;;;;5050030;28;20217;-77
2021/05/22 06:06:58;;;;;;;7.60;7.00;;;16.30;99.90;;;;;;5048196;28;20201;-76
2021/05/22 06:09:24;;;;;;;4.67;4.30;;;15.70;99.90;;;;;;5036049;28;20738;-76
2021/05/22 06:11:51;;;;;;;7.47;6.77;;;15.30;99.90;;;;;;5051822;28;20202;-77
2021/05/22 06:14:26;;;;;;;8.70;6.30;;;14.80;99.90;;;;;;5052562;28;20188;-77
2021/05/22 06:16:52;;;;;;;6.47;5.97;;;14.50;99.90;;;;;;5053556;28;20260;-77
2021/05/22 06:19:19;;;;;;;6.93;6.00;;;14.30;99.90;;;;;;5026087;28;20201;-77
2021/05/22 06:21:45;;;;;;;6.77;6.10;;;14.20;99.90;;;;;;5034681;28;20214;-76
2021/05/22 06:24:12;;;;;;;5.77;5.43;;;14.30;99.90;;;;;;5052118;28;20589;-76
2021/05/22 06:26:38;;;;;;;6.07;5.60;;;14.10;99.90;;;;;;5036485;28;20272;-77
2021/05/22 06:29:05;;;;;;;6.70;5.93;;;13.90;99.90;;;;;;5052461;28;20199;-77
2021/05/22 06:31:31;;;;;;;6.83;6.27;;;13.90;99.90;;;;;;5044039;28;20192;-77
2021/05/22 06:33:57;;;;;;;5.90;5.40;;;14.40;99.90;;;;;;5026459;28;20230;-77
2021/05/22 06:36:27;;;;;;;6.93;6.20;;;14.50;99.90;;;;;;5051016;28;20208;-77
2021/05/22 06:38:53;;;;;;;6.20;5.70;;;14.90;99.90;;;;;;5033111;28;20196;-77
2021/05/22 06:41:21;;;;;;;6.37;5.73;;;14.80;99.90;;;;;;5033172;28;20242;-76
2021/05/22 06:43:47;;;;;;;6.57;5.70;;;14.90;99.90;;;;;;5051144;28;20211;-77
2021/05/22 06:48:54;;;;;;;6.50;5.90;;;14.80;99.90;;;;;;5032723;28;20206;-77
2021/05/22 06:51:21;;;;;;;6.20;5.60;;;15.00;99.90;;;;;;5033598;28;20219;-77
2021/05/22 06:53:48;;;;;;;7.57;5.97;;;15.30;99.90;;;;;;5051393;28;20244;-76
2021/05/22 06:56:15;;;;;;;4.63;2.57;;;15.90;99.90;;;;;;5052454;28;20223;-77
2021/05/22 06:58:41;;;;;;;6.87;6.17;;;16.70;99.90;;;;;;5031110;28;20214;-77
2021/05/22 07:01:08;;;;;;;6.30;5.70;;;16.60;99.90;;;;;;5032601;28;20214;-76
2021/05/22 07:03:34;;;;;;;3.17;2.07;;;16.40;99.90;;;;;;5032783;28;20215;-77
2021/05/22 07:06:01;;;;;;;6.13;3.23;;;16.50;99.90;;;;;;5032421;28;20606;-77
2021/05/22 07:08:28;;;;;;;3.17;2.30;;;16.50;99.90;;;;;;5036666;28;20575;-81
2021/05/22 07:10:55;;;;;;;4.10;3.43;;;16.50;99.90;;;;;;5034221;28;20866;-79
2021/05/22 07:13:22;;;;;;;7.03;5.73;;;16.20;99.90;;;;;;5035019;28;20195;-77
2021/05/22 07:15:49;;;;;;;5.23;2.63;;;16.20;99.90;;;;;;5035397;28;20239;-81
2021/05/22 07:18:15;;;;;;;5.10;4.30;;;16.20;99.90;;;;;;5052316;28;20707;-77
2021/05/22 07:20:41;;;;;;;5.43;2.27;;;16.50;99.90;;;;;;5047222;28;20213;-76
2021/05/22 07:23:07;;;;;;;3.80;1.93;;;16.60;99.90;;;;;;5041397;28;20273;-75
2021/05/22 07:25:34;;;;;;;6.17;5.57;;;16.60;99.90;;;;;;5031242;28;20231;-75
2021/05/22 07:28:01;;;;;;;6.30;5.80;;;16.70;99.90;;;;;;5050895;28;20211;-76
2021/05/22 07:30:28;;;;;;;6.70;6.10;;;16.60;99.90;;;;;;5044059;28;20229;-75
2021/05/22 07:32:54;;;;;;;6.87;6.17;;;16.90;99.90;;;;;;5051642;28;20201;-75
2021/05/22 07:35:20;;;;;;;6.10;5.53;;;17.70;99.90;;;;;;5031315;28;20721;-75
2021/05/22 07:37:46;;;;;;;5.90;5.30;;;17.50;99.90;;;;;;5046482;28;20625;-75
2021/05/22 07:40:14;;;;;;;4.47;4.07;;;17.50;99.90;;;;;;5033437;28;20597;-75
2021/05/22 07:42:47;;;;;;;4.77;3.10;;;16.90;99.90;;;;;;5030866;28;20208;-75
2021/05/22 07:45:15;;;;;;;5.93;5.10;;;16.90;99.90;;;;;;5028922;28;20748;-75
2021/05/22 07:47:42;;;;;;;7.03;6.30;;;16.70;99.90;;;;;;5029763;28;20205;-75
2021/05/22 07:50:10;;;;;;;6.47;5.80;;;16.60;99.90;;;;;;5028841;28;20259;-78
2021/05/22 07:52:37;;;;;;;6.50;6.00;;;16.60;99.90;;;;;;5049756;28;20200;-77
2021/05/22 07:55:05;;;;;;;6.40;5.80;;;16.90;99.90;;;;;;5031707;28;20277;-78
2021/05/22 07:57:31;;;;;;;6.37;5.77;;;17.50;99.90;;;;;;5044367;28;20224;-78
2021/05/22 07:59:57;;;;;;;6.33;5.93;;;17.80;99.90;;;;;;5035406;28;20206;-77
2021/05/22 08:02:25;;;;;;;6.03;5.43;;;18.30;99.90;;;;;;5032897;28;20199;-77
2021/05/22 08:04:51;;;;;;;6.80;6.30;;;19.00;99.90;;;;;;5051093;28;20214;-80
2021/05/22 08:07:17;;;;;;;6.70;6.20;;;19.60;99.40;;;;;;5053206;28;20206;-73
2021/05/22 08:09:44;;;;;;;6.90;6.10;;;19.80;98.60;;;;;;5044794;28;20196;-76
2021/05/22 08:12:10;;;;;;;6.50;5.90;;;20.20;97.80;;;;;;5028725;28;20200;-75
2021/05/22 08:14:36;;;;;;;4.50;4.10;;;20.60;96.80;;;;;;5028820;28;20262;-75
2021/05/22 08:17:03;;;;;;;4.53;4.13;;;20.70;97.00;;;;;;5030064;28;20664;-76
2021/05/22 08:19:30;;;;;;;6.50;6.00;;;20.70;95.20;;;;;;5029420;28;20292;-75
2021/05/22 08:21:56;;;;;;;6.63;6.00;;;20.70;97.00;;;;;;5045851;28;20208;-75
2021/05/22 08:24:23;;;;;;;6.80;6.20;;;20.70;95.90;;;;;;5049816;28;20559;-75
2021/05/22 08:26:49;;;;;;;6.53;6.13;;;20.50;95.70;;;;;;5046851;28;20720;-75
2021/05/22 08:29:15;;;;;;;6.40;6.00;;;20.50;95.70;;;;;;5032474;28;20612;-75
2021/05/22 08:31:42;;;;;;;6.90;6.10;;;20.40;95.50;;;;;;5021872;28;20663;-75
2021/05/22 08:34:08;;;;;;;6.80;6.23;;;20.60;95.50;;;;;;5048818;28;20214;-76
2021/05/22 08:36:35;;;;;;;7.23;6.47;;;20.90;95.10;;;;;;5048295;28;20217;-75
2021/05/22 08:39:03;;;;;;;6.57;5.97;;;21.00;93.70;;;;;;5045714;28;20252;-76
2021/05/22 08:41:33;;;;;;;6.70;6.20;;;21.10;92.60;;;;;;5032506;28;20266;-75
2021/05/22 08:44:01;;;;;;;7.33;6.50;;;21.20;91.90;;;;;;5043495;28;20211;-75
2021/05/22 08:47:22;;;;;;;7.00;6.40;;;21.00;93.00;;;;;;5114594;22;20284;-75
2021/05/22 08:49:53;;;;;;;6.40;5.90;;;21.00;91.70;;;;;;5024653;28;20203;-74
2021/05/22 08:52:30;;;;;;;6.37;5.87;;;21.30;92.20;;;;;;5027960;28;20194;-75
2021/05/22 08:55:15;;;;;;;6.10;5.70;;;21.50;91.50;;;;;;5040337;28;20578;-74
2021/05/22 08:57:48;;;;;;;7.07;6.40;;;21.60;90.60;;;;;;5014885;28;20256;-75
2021/05/22 09:00:24;;;;;;;6.83;6.33;;;21.50;90.20;;;;;;5025164;28;20203;-74
2021/05/22 09:02:58;;;;;;;7.73;6.20;;;21.60;91.80;;;;;;5044114;28;20200;-75
2021/05/22 09:05:26;;;;;;;6.90;5.90;;;21.90;91.60;;;;;;5024049;28;20356;-74
2021/05/22 09:07:56;;;;;;;6.40;5.97;;;22.20;91.00;;;;;;5059000;28;20211;-75
2021/05/22 09:10:24;;;;;;;6.77;6.17;;;22.40;91.00;;;;;;5015982;28;20230;-75
2021/05/22 09:12:53;;;;;;;6.60;6.10;;;22.40;90.50;;;;;;5044348;28;20253;-74
2021/05/22 09:15:21;;;;;;;6.07;5.57;;;22.30;90.40;;;;;;5013726;28;20211;-74
2021/05/22 09:17:53;;;;;;;6.27;5.70;;;22.30;89.60;;;;;;5028475;28;20184;-74
2021/05/22 09:20:28;;;;;;;6.57;6.00;;;22.40;89.50;;;;;;5018254;28;20227;-74
2021/05/22 09:23:05;;;;;;;6.10;5.70;;;22.40;90.20;;;;;;5033128;28;20203;-74
2021/05/22 09:25:33;;;;;;;6.73;6.17;;;22.50;86.80;;;;;;5017088;28;20223;-74
2021/05/22 09:28:03;;;;;;;6.30;5.83;;;22.50;90.10;;;;;;5037073;28;20215;-74
2021/05/22 09:30:31;;;;;;;6.97;6.30;;;22.80;89.80;;;;;;5033135;28;20209;-75
2021/05/22 09:32:58;;;;;;;7.13;6.60;;;22.70;88.50;;;;;;5022046;28;20201;-75
2021/05/22 09:35:27;;;;;;;7.00;6.50;;;22.60;87.80;;;;;;5014280;28;20229;-75
2021/05/22 09:37:55;;;;;;;6.67;5.93;;;22.30;87.10;;;;;;5007976;28;20291;-75
2021/05/22 09:40:28;;;;;;;6.40;5.90;;;22.20;86.00;;;;;;5034637;28;20703;-75
2021/05/22 09:43:00;;;;;;;5.90;5.50;;;22.50;87.50;;;;;;5023591;28;20192;-75
2021/05/22 09:45:31;;;;;;;6.00;5.40;;;22.40;86.40;;;;;;5001783;28;20239;-75
2021/05/22 09:47:59;;;;;;;6.00;5.50;;;22.60;86.20;;;;;;5015447;28;20578;-75
2021/05/22 09:50:37;;;;;;;5.97;5.50;;;23.00;88.30;;;;;;5033331;28;20636;-75
2021/05/22 09:53:21;;;;;;;5.90;5.47;;;23.30;86.70;;;;;;5015785;28;20203;-75
2021/05/22 09:56:17;;;;;;;5.70;5.30;;;23.40;85.20;;;;;;5013520;28;20231;-75
2021/05/22 09:58:45;;;;;;;5.90;5.40;;;23.20;81.50;;;;;;5012977;28;20195;-75
2021/05/22 10:01:13;;;;;;;6.13;5.63;;;23.30;84.60;;;;;;5037227;28;20184;-75
2021/05/22 10:03:44;;;;;;;5.63;5.23;;;23.20;81.00;;;;;;5008304;28;20212;-75
2021/05/22 10:06:14;;;;;;;8.07;5.30;;;23.20;81.70;;;;;;5026443;28;20588;-75
2021/05/22 10:08:45;;;;;;;6.27;5.77;;;22.70;80.80;;;;;;5005689;28;20228;-75
2021/05/22 10:11:19;;;;;;;6.33;5.73;;;22.40;81.00;;;;;;5018638;28;20689;-75
2021/05/22 10:13:59;;;;;;;6.10;5.60;;;22.50;82.10;;;;;;5002789;28;20196;-75
2021/05/22 10:16:32;;;;;;;5.90;5.40;;;22.50;82.20;;;;;;5007490;28;20223;-75
2021/05/22 10:18:59;;;;;;;6.07;5.60;;;22.50;83.40;;;;;;5010173;28;20224;-75
2021/05/22 10:21:29;;;;;;;6.67;5.20;;;22.50;83.10;;;;;;5010033;28;20298;-75
2021/05/22 10:23:57;;;;;;;7.63;5.37;;;22.40;82.20;;;;;;5035941;28;20217;-75
2021/05/22 10:26:29;;;;;;;6.17;5.60;;;22.30;85.00;;;;;;5040207;28;20910;-75
2021/05/22 10:28:58;;;;;;;5.43;5.03;;;22.20;82.70;;;;;;5003286;28;20219;-75
2021/05/22 10:31:24;;;;;;;5.80;5.33;;;21.80;82.50;;;;;;5031230;28;20196;-75
2021/05/22 10:33:55;;;;;;;5.40;5.00;;;21.70;81.90;;;;;;5009825;28;20625;-75
2021/05/22 10:36:50;;;;;;;5.70;5.20;;;21.70;82.10;;;;;;5023357;28;20257;-75
2021/05/22 10:39:36;;;;;;;6.20;5.20;;;21.70;80.70;;;;;;5011993;28;20200;-75
2021/05/22 10:42:04;;;;;;;5.30;5.00;;;21.60;80.70;;;;;;5008593;28;20207;-75
2021/05/22 10:44:38;;;;;;;5.87;5.27;;;21.50;82.80;;;;;;4998817;28;20224;-75
2021/05/22 10:47:12;;;;;;;6.00;5.40;;;21.50;82.90;;;;;;5026859;28;20763;-75
2021/05/22 10:50:06;;;;;;;5.70;5.20;;;21.40;81.80;;;;;;5016209;28;20200;-75
2021/05/22 10:52:35;;;;;;;5.20;4.80;;;21.40;82.10;;;;;;5011570;28;20413;-75
2021/05/22 10:55:10;;;;;;;5.53;5.03;;;21.20;81.60;;;;;;5048516;28;20195;-75
2021/05/22 10:58:11;;;;;;;5.80;5.10;;;21.00;81.60;;;;;;5024851;28;20575;-75
2021/05/22 11:00:47;;;;;;;5.70;5.30;;;21.10;82.10;;;;;;5024378;28;20238;-75
2021/05/22 11:03:18;;;;;;;5.17;4.83;;;21.10;80.00;;;;;;5034742;28;20210;-75
2021/05/22 11:05:45;;;;;;;5.87;5.47;;;21.00;77.60;;;;;;5033617;28;20228;-75
2021/05/22 11:08:33;;;;;;;5.60;5.20;;;20.80;82.10;;;;;;5018143;28;20237;-74
2021/05/22 11:11:01;;;;;;;5.43;5.03;;;20.80;80.10;;;;;;5029997;28;20260;-75
2021/05/22 11:13:41;;;;;;;5.50;5.10;;;20.50;79.60;;;;;;5021070;28;20696;-75
2021/05/22 11:16:10;;;;;;;6.00;5.50;;;20.30;80.20;;;;;;5021360;28;20213;-76
2021/05/22 11:22:52;;;;;;;;;;;;;;;;;;;;;
2021/05/22 11:25:52;;;;;;;5.47;4.93;;;20.10;81.00;;;;;;4976311;28;20314;-79
2021/05/22 11:28:21;;;;;;;5.53;5.13;;;19.80;84.00;;;;;;5033058;28;20196;-78
2021/05/22 11:30:53;;;;;;;5.20;4.80;;;19.70;81.40;;;;;;5034536;28;20234;-78
2021/05/22 11:33:34;;;;;;;5.13;4.80;;;19.70;84.30;;;;;;5035936;28;20195;-78
2021/05/22 11:36:14;;;;;;;5.90;4.90;;;19.60;82.40;;;;;;5039183;28;20309;-77
2021/05/22 11:38:42;;;;;;;5.57;4.83;;;19.80;84.60;;;;;;5026341;28;20207;-78
2021/05/22 11:41:14;;;;;;;4.87;4.57;;;19.70;83.00;;;;;;5039203;28;20205;-78
2021/05/22 11:44:04;;;;;;;5.23;4.93;;;19.80;84.10;;;;;;5028569;28;20690;-77
2021/05/22 11:46:46;;;;;;;5.10;4.80;;;19.50;80.30;;;;;;5021354;28;20389;-77
2021/05/22 11:49:33;;;;;;;5.30;4.90;;;19.20;81.00;;;;;;5025492;28;20676;-77
2021/05/22 11:51:59;;;;;;;4.93;4.63;;;19.10;82.90;;;;;;5014533;28;20200;-78
2021/05/22 11:54:46;;;;;;;5.60;5.20;;;19.20;83.40;;;;;;5012475;28;20251;-78
2021/05/22 11:57:28;;;;;;;5.73;5.20;;;19.20;83.60;;;;;;5012267;28;20327;-78
2021/05/22 11:59:58;;;;;;;4.37;3.90;;;19.20;82.10;;;;;;5038875;28;20552;-76
2021/05/22 12:02:37;;;;;;;5.30;4.90;;;19.40;79.30;;;;;;5019103;28;20197;-78
2021/05/22 12:05:14;;;;;;;4.10;2.70;;;19.50;80.80;;;;;;5015089;28;20299;-78
2021/05/22 12:07:47;;;;;;;6.40;4.33;;;19.50;82.30;;;;;;5018476;28;20200;-78
2021/05/22 12:10:15;;;;;;;5.23;3.10;;;19.60;80.40;;;;;;5022063;28;20204;-79
2021/05/22 12:12:41;;;;;;;2.67;2.50;;;19.60;80.20;;;;;;5018179;28;20196;-79
2021/05/22 12:16:08;;;;;;;2.93;2.63;;;19.50;81.20;;;;;;5026673;28;20192;-78
2021/05/22 12:26:36;;;;;;;2.17;1.93;;;19.60;81.90;;;;;;4992210;22;20425;-80
2021/05/22 12:33:37;;;;;;;2.20;2.00;;;19.60;83.00;;;;;;5059244;28;20309;-81
2021/05/22 12:40:24;;;;;;;2.10;2.00;;;20.00;81.20;;;;;;5025807;28;20292;-80
2021/05/22 12:43:14;;;;;;;2.77;2.50;;;20.10;80.30;;;;;;5023426;28;20262;-80
2021/05/22 12:45:52;;;;;;;4.70;3.20;;;20.00;79.70;;;;;;5026587;28;20216;-77
2021/05/22 12:48:24;;;;;;;2.57;2.03;;;19.90;78.20;;;;;;5035138;28;20199;-78
2021/05/22 12:50:50;;;;;;;2.23;1.87;;;20.00;78.80;;;;;;5031296;28;20200;-77
2021/05/22 12:53:29;;;;;;;4.70;1.93;;;19.90;81.70;;;;;;5032518;28;20197;-77
2021/05/22 12:56:04;;;;;;;1.90;1.80;;;19.70;81.40;;;;;;5033450;28;20219;-77
2021/05/22 12:58:32;;;;;;;1.70;1.60;;;19.80;80.50;;;;;;5027207;28;20206;-77
2021/05/22 13:01:13;;;;;;;3.00;2.60;;;20.20;82.20;;;;;;5032588;28;20209;-77
2021/05/22 13:03:49;;;;;;;5.27;3.90;;;20.50;82.10;;;;;;5033210;28;20698;-77
2021/05/22 13:06:30;;;;;;;4.47;4.10;;;20.60;78.90;;;;;;5030685;28;20219;-77
2021/05/22 13:09:06;;;;;;;3.83;3.63;;;20.70;79.30;;;;;;5034392;28;20191;-77
2021/05/22 13:11:35;;;;;;;4.37;3.90;;;20.60;79.20;;;;;;5030836;28;20268;-77
2021/05/22 13:14:07;;;;;;;4.50;4.10;;;20.40;80.10;;;;;;5030516;28;20213;-77
2021/05/22 13:16:34;;;;;;;4.77;4.37;;;20.30;81.00;;;;;;5033967;28;20219;-77
2021/05/22 13:19:02;;;;;;;4.97;4.33;;;19.90;80.60;;;;;;5033842;28;20222;-76
2021/05/22 13:21:35;;;;;;;5.03;4.60;;;19.90;80.40;;;;;;5040627;28;20209;-77
2021/05/22 13:24:09;;;;;;;4.50;4.20;;;20.00;79.60;;;;;;5033635;28;20249;-77